createdAt,value
2022-09-17T00:00:50.744Z,0.30
2022-09-17T00:03:17.586Z,0.40
2022-09-17T00:05:44.566Z,0.32
2022-09-17T00:08:14.879Z,0.20
2022-09-17T00:10:44.112Z,0.20
2022-09-17T00:13:11.662Z,0.20
2022-09-17T00:15:43.634Z,0.20
2022-09-17T00:18:11.214Z,0.40
2022-09-17T00:20:46.411Z,0.30
2022-09-17T00:23:14.826Z,0.30
2022-09-17T00:25:44.185Z,0.50
2022-09-17T00:28:13.274Z,0.10
2022-09-17T00:30:41.794Z,0.15
2022-09-17T00:33:09.335Z,0.10
2022-09-17T00:35:36.112Z,0.30
2022-09-17T00:38:03.000Z,0.20
2022-09-17T00:40:29.858Z,0.20
2022-09-17T00:42:56.734Z,0.20
2022-09-17T00:45:24.314Z,0.28
2022-09-17T00:48:06.107Z,0.20
2022-09-17T00:50:37.753Z,0.10
2022-09-17T00:53:20.224Z,0.10
2022-09-17T00:55:57.746Z,0.10
2022-09-17T00:58:27.173Z,0.20
2022-09-17T01:00:54.077Z,0.10
2022-09-17T01:03:21.436Z,0.00
2022-09-17T01:05:53.934Z,0.13
2022-09-17T01:08:32.621Z,0.20
2022-09-17T01:11:30.310Z,0.00
2022-09-17T01:14:11.404Z,0.00
2022-09-17T01:16:52.675Z,0.20
2022-09-17T01:19:49.371Z,0.00
2022-09-17T01:22:25.079Z,0.10
2022-09-17T01:25:21.046Z,0.10
2022-09-17T01:28:17.221Z,0.10
2022-09-17T01:31:05.073Z,0.10
2022-09-17T01:33:46.560Z,0.03
2022-09-17T01:36:47.312Z,0.10
2022-09-17T01:39:19.912Z,0.03
2022-09-17T01:42:00.225Z,0.10
2022-09-17T01:44:35.142Z,0.10
2022-09-17T01:47:10.940Z,0.05
2022-09-17T01:49:39.639Z,0.13
2022-09-17T01:52:09.682Z,0.00
2022-09-17T01:54:43.521Z,0.10
2022-09-17T01:57:23.157Z,0.00
2022-09-17T02:00:03.828Z,0.00
2022-09-17T02:02:36.634Z,0.00
2022-09-17T02:05:10.280Z,0.03
2022-09-17T02:07:45.794Z,0.00
2022-09-17T02:10:17.435Z,0.10
2022-09-17T02:12:50.215Z,0.00
2022-09-17T02:15:23.159Z,0.13
2022-09-17T02:18:00.206Z,0.20
2022-09-17T02:20:35.827Z,0.10
2022-09-17T02:23:09.989Z,0.00
2022-09-17T02:25:55.920Z,0.10
2022-09-17T02:28:43.012Z,0.00
2022-09-17T02:31:10.455Z,0.10
2022-09-17T02:33:39.482Z,0.10
2022-09-17T02:36:06.455Z,0.03
2022-09-17T02:38:33.275Z,0.00
2022-09-17T02:41:11.509Z,0.10
2022-09-17T02:43:57.015Z,0.10
2022-09-17T02:46:59.252Z,0.13
2022-09-17T02:52:36.504Z,0.13
2022-09-17T02:55:26.638Z,0.10
2022-09-17T02:57:59.021Z,0.25
2022-09-17T03:00:28.370Z,0.10
2022-09-17T03:03:01.056Z,0.10
2022-09-17T03:05:29.438Z,0.10
2022-09-17T03:07:57.351Z,0.10
2022-09-17T03:10:24.265Z,0.08
2022-09-17T03:12:53.661Z,0.00
2022-09-17T03:15:20.542Z,0.10
2022-09-17T03:17:52.579Z,0.03
2022-09-17T03:20:20.300Z,0.10
2022-09-17T03:22:47.248Z,0.00
2022-09-17T03:25:14.080Z,0.05
2022-09-17T03:27:41.000Z,0.00
2022-09-17T03:30:08.110Z,0.00
2022-09-17T03:32:34.870Z,0.00
2022-09-17T03:35:01.694Z,0.00
2022-09-17T03:37:32.842Z,0.00
2022-09-17T03:40:00.005Z,0.00
2022-09-17T03:42:26.850Z,0.00
2022-09-17T03:44:53.575Z,0.00
2022-09-17T03:47:20.348Z,0.00
2022-09-17T03:49:47.066Z,0.00
2022-09-17T03:52:14.021Z,0.08
2022-09-17T03:54:40.826Z,0.03
2022-09-17T03:57:07.644Z,0.13
2022-09-17T03:59:34.457Z,0.10
2022-09-17T04:02:01.297Z,0.17
2022-09-17T04:04:28.112Z,0.17
2022-09-17T04:06:55.016Z,0.10
2022-09-17T04:09:21.784Z,0.40
2022-09-17T04:11:48.668Z,0.22
2022-09-17T04:14:15.537Z,0.20
2022-09-17T04:16:42.303Z,0.20
2022-09-17T04:19:09.075Z,0.30
2022-09-17T04:21:35.816Z,0.10
2022-09-17T04:24:02.643Z,0.10
2022-09-17T04:26:29.416Z,0.10
2022-09-17T04:28:56.603Z,0.10
2022-09-17T04:31:25.005Z,0.10
2022-09-17T04:33:51.847Z,0.10
2022-09-17T04:36:18.743Z,0.10
2022-09-17T04:38:48.932Z,0.10
2022-09-17T04:41:15.895Z,0.10
2022-09-17T04:43:42.819Z,0.20
2022-09-17T04:46:09.632Z,0.20
2022-09-17T04:48:36.543Z,0.10
2022-09-17T04:51:03.561Z,0.38
2022-09-17T04:53:30.322Z,0.20
2022-09-17T04:55:57.097Z,0.10
2022-09-17T04:58:23.902Z,0.10
2022-09-17T05:00:50.698Z,0.40
2022-09-17T05:03:17.707Z,0.20
2022-09-17T05:05:44.515Z,0.28
2022-09-17T05:08:11.800Z,0.63
2022-09-17T05:10:38.585Z,0.50
2022-09-17T05:13:05.547Z,0.73
2022-09-17T05:15:32.284Z,0.40
2022-09-17T05:17:59.062Z,0.30
2022-09-17T05:20:25.806Z,0.20
2022-09-17T05:22:52.893Z,0.20
2022-09-17T05:25:24.525Z,0.10
2022-09-17T05:27:52.353Z,0.13
2022-09-17T05:30:19.537Z,0.20
2022-09-17T05:32:47.199Z,0.20
2022-09-17T05:35:14.078Z,0.20
2022-09-17T05:37:41.141Z,0.10
2022-09-17T05:40:09.205Z,0.10
2022-09-17T05:42:36.281Z,0.20
2022-09-17T05:45:03.358Z,0.00
2022-09-17T05:47:30.226Z,0.10
2022-09-17T05:49:57.106Z,0.08
2022-09-17T05:52:28.141Z,0.00
2022-09-17T05:54:55.531Z,0.10
2022-09-17T05:57:22.349Z,0.00
2022-09-17T05:59:49.393Z,0.00
2022-09-17T06:02:16.181Z,0.10
2022-09-17T06:04:42.937Z,0.00
2022-09-17T06:07:10.123Z,0.00
2022-09-17T06:09:37.658Z,0.10
2022-09-17T06:12:05.679Z,0.10
2022-09-17T06:14:32.561Z,0.10
2022-09-17T06:17:00.057Z,0.08
2022-09-17T06:19:27.895Z,0.00
2022-09-17T06:21:55.365Z,0.00
2022-09-17T06:24:22.237Z,0.00
2022-09-17T06:26:49.009Z,0.00
2022-09-17T06:29:15.933Z,0.13
2022-09-17T06:31:46.096Z,0.00
2022-09-17T06:34:12.987Z,0.00
2022-09-17T06:36:39.949Z,0.00
2022-09-17T06:39:07.434Z,0.00
2022-09-17T06:41:34.606Z,0.32
2022-09-17T06:44:02.189Z,0.00
2022-09-17T06:46:29.664Z,0.00
2022-09-17T06:48:56.520Z,0.35
2022-09-17T06:51:23.568Z,0.10
2022-09-17T06:53:50.438Z,0.15
2022-09-17T06:56:17.907Z,0.10
2022-09-17T06:58:45.239Z,0.20
2022-09-17T07:01:13.276Z,0.20
2022-09-17T07:03:45.268Z,0.10
2022-09-17T07:06:12.711Z,0.00
2022-09-17T07:08:39.795Z,0.10
2022-09-17T07:11:06.861Z,0.10
2022-09-17T07:13:34.114Z,0.10
2022-09-17T07:16:05.141Z,0.15
2022-09-17T07:18:32.335Z,0.10
2022-09-17T07:21:01.242Z,0.10
2022-09-17T07:23:30.467Z,0.10
2022-09-17T07:26:06.509Z,0.15
2022-09-17T07:28:33.677Z,0.22
2022-09-17T07:31:10.208Z,0.08
2022-09-17T07:33:40.621Z,0.10
2022-09-17T07:36:10.555Z,0.05
2022-09-17T07:38:37.515Z,0.00
2022-09-17T07:41:09.686Z,0.30
2022-09-17T07:46:06.176Z,0.10
2022-09-17T07:48:33.291Z,0.10
2022-09-17T07:51:00.125Z,0.10
2022-09-17T07:53:27.331Z,0.00
2022-09-17T07:55:59.039Z,0.00
2022-09-17T07:58:34.440Z,0.00
2022-09-17T08:01:08.783Z,0.10
2022-09-17T08:03:37.269Z,0.10
2022-09-17T08:06:09.505Z,0.10
2022-09-17T08:08:36.966Z,0.00
2022-09-17T08:11:05.338Z,0.65
2022-09-17T08:13:32.830Z,0.00
2022-09-17T08:16:01.195Z,0.10
2022-09-17T08:18:29.948Z,0.00
2022-09-17T08:20:58.686Z,0.00
2022-09-17T08:23:26.695Z,0.00
2022-09-17T08:25:55.280Z,0.00
2022-09-17T08:28:26.595Z,0.08
2022-09-17T08:30:54.019Z,0.40
2022-09-17T08:33:21.532Z,0.30
2022-09-17T08:35:59.460Z,0.30
2022-09-17T08:38:37.660Z,0.50
2022-09-17T08:41:11.495Z,0.45
2022-09-17T08:43:47.372Z,0.25
2022-09-17T08:46:14.504Z,0.20
2022-09-17T08:49:21.984Z,0.20
2022-09-17T08:52:16.379Z,0.20
2022-09-17T08:55:03.550Z,0.30
2022-09-17T08:57:49.625Z,0.60
2022-09-17T09:00:22.724Z,0.10
2022-09-17T09:02:58.480Z,0.75
2022-09-17T09:05:45.856Z,0.35
2022-09-17T09:08:37.922Z,0.30
2022-09-17T09:11:11.040Z,0.15
2022-09-17T09:14:06.972Z,0.20
2022-09-17T09:16:37.627Z,0.20
2022-09-17T09:19:21.845Z,0.22
2022-09-17T09:22:12.806Z,0.20
2022-09-17T09:24:48.203Z,0.17
2022-09-17T09:27:23.233Z,0.30
2022-09-17T09:30:04.533Z,0.10
2022-09-17T09:32:56.566Z,0.20
2022-09-17T09:35:33.574Z,0.90
2022-09-17T09:38:29.426Z,1.17
2022-09-17T09:41:20.012Z,0.28
2022-09-17T09:44:05.362Z,0.10
2022-09-17T09:47:08.245Z,0.30
2022-09-17T09:49:54.199Z,0.30
2022-09-17T09:52:39.076Z,0.30
2022-09-17T09:55:51.060Z,0.20
2022-09-17T09:58:30.076Z,0.20
2022-09-17T10:00:56.988Z,0.22
2022-09-17T10:03:28.692Z,0.20
2022-09-17T10:05:58.772Z,0.10
2022-09-17T10:08:26.337Z,0.30
2022-09-17T10:11:06.239Z,0.30
2022-09-17T10:13:41.680Z,0.20
2022-09-17T10:16:32.670Z,0.20
2022-09-17T10:19:12.301Z,0.10
2022-09-17T10:21:48.045Z,0.30
2022-09-17T10:24:36.506Z,0.10
2022-09-17T10:27:06.718Z,0.20
2022-09-17T10:29:34.501Z,0.20
2022-09-17T10:32:02.709Z,0.10
2022-09-17T10:34:31.517Z,0.65
2022-09-17T10:36:58.693Z,0.20
2022-09-17T10:39:44.363Z,0.28
2022-09-17T10:42:17.189Z,0.10
2022-09-17T10:44:52.969Z,0.17
2022-09-17T10:47:29.091Z,0.05
2022-09-17T10:50:24.788Z,0.20
2022-09-17T10:52:55.599Z,0.10
2022-09-17T10:55:24.086Z,0.10
2022-09-17T10:58:05.906Z,0.20
2022-09-17T11:03:23.333Z,0.20
2022-09-17T11:06:14.494Z,0.30
2022-09-17T11:09:02.629Z,0.73
2022-09-17T11:11:53.565Z,0.20
2022-09-17T11:14:47.890Z,0.30
2022-09-17T11:17:39.389Z,0.43
2022-09-17T11:20:12.372Z,0.32
2022-09-17T11:23:05.353Z,0.30
2022-09-17T11:26:00.267Z,0.63
2022-09-17T11:29:00.303Z,0.55
2022-09-17T11:31:48.738Z,0.50
2022-09-17T11:34:35.188Z,0.63
2022-09-17T11:37:16.810Z,0.47
2022-09-17T11:39:53.219Z,0.20
2022-09-17T11:42:24.708Z,0.30
2022-09-17T11:45:20.192Z,0.30
2022-09-17T11:48:25.999Z,0.30
2022-09-17T11:50:58.976Z,0.40
2022-09-17T11:53:34.627Z,0.35
2022-09-17T11:56:22.770Z,0.40
2022-09-17T11:58:58.746Z,0.57
2022-09-17T12:01:41.628Z,0.40
2022-09-17T12:04:31.632Z,0.40
2022-09-17T12:07:16.205Z,0.60
2022-09-17T12:09:45.559Z,0.25
2022-09-17T12:12:44.817Z,0.50
2022-09-17T12:15:16.152Z,0.55
2022-09-17T12:18:31.023Z,0.50
2022-09-17T12:20:59.349Z,0.40
2022-09-17T12:23:45.988Z,0.40
2022-09-17T12:26:29.363Z,0.60
2022-09-17T12:29:21.484Z,0.50
2022-09-17T12:32:29.651Z,0.40
2022-09-17T12:35:17.244Z,0.50
2022-09-17T12:38:14.292Z,0.60
2022-09-17T12:41:10.449Z,0.50
2022-09-17T12:43:55.209Z,0.30
2022-09-17T12:46:45.775Z,0.50
2022-09-17T12:49:39.768Z,0.50
2022-09-17T12:52:20.976Z,0.43
2022-09-17T12:55:13.898Z,0.38
2022-09-17T12:57:59.578Z,0.30
2022-09-17T13:00:27.214Z,0.40
2022-09-17T13:03:13.364Z,0.50
2022-09-17T13:06:27.065Z,0.60
2022-09-17T13:09:20.980Z,0.60
2022-09-17T13:11:56.528Z,0.52
2022-09-17T13:14:46.506Z,0.50
2022-09-17T13:17:39.128Z,0.40
2022-09-17T13:20:23.363Z,0.50
2022-09-17T13:22:52.657Z,0.57
2022-09-17T13:25:21.523Z,0.50
2022-09-17T13:27:50.527Z,0.43
2022-09-17T13:30:19.215Z,0.50
2022-09-17T13:32:48.559Z,0.70
2022-09-17T13:35:15.282Z,0.60
2022-09-17T13:37:53.977Z,0.38
2022-09-17T13:40:23.738Z,0.52
2022-09-17T13:42:57.149Z,0.40
2022-09-17T13:45:25.722Z,0.40
2022-09-17T13:47:58.990Z,0.40
2022-09-17T13:50:37.579Z,0.50
2022-09-17T13:53:07.433Z,0.30
2022-09-17T13:55:55.757Z,0.43
2022-09-17T13:58:28.655Z,0.30
2022-09-17T14:00:58.687Z,0.70
2022-09-17T14:03:31.476Z,0.30
2022-09-17T14:06:19.494Z,0.40
2022-09-17T14:08:52.087Z,0.30
2022-09-17T14:11:28.638Z,0.35
2022-09-17T14:14:35.700Z,0.35
2022-09-17T14:17:02.536Z,0.30
2022-09-17T14:19:31.186Z,0.30
2022-09-17T14:22:05.926Z,0.40
2022-09-17T14:24:36.019Z,0.38
2022-09-17T14:27:16.880Z,0.63
2022-09-17T14:30:14.012Z,0.40
2022-09-17T14:33:11.662Z,0.40
2022-09-17T14:35:47.036Z,0.30
2022-09-17T14:38:23.735Z,0.55
2022-09-17T14:41:03.476Z,0.30
2022-09-17T14:43:45.368Z,0.50
2022-09-17T14:48:45.643Z,0.55
2022-09-17T14:51:20.832Z,0.40
2022-09-17T14:54:20.820Z,0.63
2022-09-17T14:57:08.624Z,0.40
2022-09-17T14:59:59.636Z,0.40
2022-09-17T15:02:41.986Z,0.60
2022-09-17T15:05:18.541Z,0.70
2022-09-17T15:07:46.435Z,0.50
2022-09-17T15:10:19.636Z,0.40
2022-09-17T15:12:47.759Z,0.50
2022-09-17T15:15:23.426Z,0.70
2022-09-17T15:17:51.452Z,1.35
2022-09-17T15:20:24.764Z,0.65
2022-09-17T15:23:18.488Z,0.85
2022-09-17T15:25:48.982Z,1.13
2022-09-17T15:28:37.893Z,0.57
2022-09-17T15:31:06.995Z,0.47
2022-09-17T15:33:34.369Z,0.80
2022-09-17T15:36:22.312Z,0.90
2022-09-17T15:38:50.801Z,0.70
2022-09-17T15:41:33.793Z,0.50
2022-09-17T15:44:32.102Z,0.40
2022-09-17T15:47:36.941Z,0.50
2022-09-17T15:50:28.947Z,0.60
2022-09-17T15:55:45.896Z,0.70
2022-09-17T15:58:21.753Z,0.80
2022-09-17T16:01:12.652Z,0.60
2022-09-17T16:04:01.809Z,0.50
2022-09-17T16:06:28.617Z,0.90
2022-09-17T16:09:00.788Z,0.52
2022-09-17T16:11:30.157Z,0.60
2022-09-17T16:13:58.781Z,0.60
2022-09-17T16:16:35.522Z,0.70
2022-09-17T16:19:02.979Z,1.02
2022-09-17T16:21:29.745Z,0.75
2022-09-17T16:23:58.116Z,0.85
2022-09-17T16:26:35.633Z,0.63
2022-09-17T16:29:11.282Z,1.17
2022-09-17T16:31:38.173Z,0.95
2022-09-17T16:34:05.071Z,0.60
2022-09-17T16:36:32.258Z,0.63
2022-09-17T16:38:59.374Z,0.65
2022-09-17T16:41:26.503Z,0.60
2022-09-17T16:43:53.426Z,0.80
2022-09-17T16:46:20.235Z,0.55
2022-09-17T16:48:50.819Z,0.57
2022-09-17T16:51:17.631Z,0.40
2022-09-17T16:53:44.443Z,0.60
2022-09-17T16:56:13.571Z,0.60
2022-09-17T16:58:41.551Z,0.70
2022-09-17T17:01:09.461Z,0.60
2022-09-17T17:03:36.315Z,0.65
2022-09-17T17:06:03.687Z,0.60
2022-09-17T17:08:34.536Z,0.50
2022-09-17T17:11:01.626Z,0.57
2022-09-17T17:13:28.801Z,0.77
2022-09-17T17:15:55.882Z,0.60
2022-09-17T17:18:24.421Z,0.50
2022-09-17T17:20:51.199Z,0.60
2022-09-17T17:23:18.014Z,0.73
2022-09-17T17:25:44.822Z,0.60
2022-09-17T17:28:11.673Z,0.68
2022-09-17T17:30:38.613Z,0.88
2022-09-17T17:33:05.691Z,0.80
2022-09-17T17:35:32.578Z,0.77
2022-09-17T17:37:59.468Z,1.08
2022-09-17T17:40:26.703Z,1.10
2022-09-17T17:42:54.771Z,0.93
2022-09-17T17:45:21.860Z,1.27
2022-09-17T17:47:49.000Z,0.93
2022-09-17T17:50:15.980Z,0.93
2022-09-17T17:52:47.802Z,0.98
2022-09-17T17:57:42.078Z,1.15
2022-09-17T18:00:12.598Z,1.63
2022-09-17T18:02:40.379Z,1.73
2022-09-17T18:05:07.634Z,1.20
2022-09-17T18:07:34.461Z,1.00
2022-09-17T18:10:01.189Z,1.20
2022-09-17T18:12:28.054Z,1.45
2022-09-17T18:14:54.936Z,1.38
2022-09-17T18:17:21.713Z,1.10
2022-09-17T18:19:48.530Z,1.00
2022-09-17T18:22:15.385Z,1.30
2022-09-17T18:24:42.149Z,1.48
2022-09-17T18:27:08.893Z,1.85
2022-09-17T18:29:35.622Z,2.42
2022-09-17T18:32:02.679Z,1.20
2022-09-17T18:34:29.486Z,1.17
2022-09-17T18:36:56.284Z,1.20
2022-09-17T18:42:09.847Z,1.73
2022-09-17T18:44:36.636Z,1.55
2022-09-17T18:47:03.510Z,1.15
2022-09-17T18:49:30.365Z,1.27
2022-09-17T18:51:57.079Z,1.40
2022-09-17T18:54:24.000Z,1.23
2022-09-17T18:56:50.794Z,1.40
2022-09-17T18:59:17.538Z,1.27
2022-09-17T19:01:44.625Z,1.20
2022-09-17T19:04:11.487Z,1.30
2022-09-17T19:06:38.519Z,1.38
2022-09-17T19:09:05.488Z,1.40
2022-09-17T19:11:33.942Z,1.70
2022-09-17T19:14:01.447Z,1.70
2022-09-17T19:16:28.336Z,1.50
2022-09-17T19:18:55.227Z,1.50
2022-09-17T19:21:22.117Z,3.47
2022-09-17T19:23:50.857Z,6.00
2022-09-17T19:26:24.311Z,2.85
2022-09-17T19:29:00.261Z,2.72
2022-09-17T19:31:27.588Z,3.25
2022-09-17T19:33:55.397Z,2.13
2022-09-17T19:36:22.164Z,1.60
2022-09-17T19:38:49.008Z,2.15
2022-09-17T19:41:21.005Z,1.95
2022-09-17T19:46:20.449Z,1.50
2022-09-17T19:48:49.718Z,1.83
2022-09-17T19:51:17.831Z,1.70
2022-09-17T19:53:45.681Z,1.70
2022-09-17T19:56:14.658Z,1.73
2022-09-17T19:58:42.158Z,2.10
2022-09-17T20:01:09.621Z,1.90
2022-09-17T20:03:38.947Z,1.75
2022-09-17T20:06:07.962Z,1.80
2022-09-17T20:08:38.060Z,2.00
2022-09-17T20:11:09.728Z,1.90
2022-09-17T20:13:36.920Z,2.10
2022-09-17T20:16:08.976Z,2.30
2022-09-17T20:18:36.560Z,2.00
2022-09-17T20:21:11.288Z,2.15
2022-09-17T20:23:38.151Z,1.65
2022-09-17T20:26:05.785Z,2.30
2022-09-17T20:28:33.285Z,2.13
2022-09-17T20:31:05.399Z,2.20
2022-09-17T20:33:32.766Z,2.50
2022-09-17T20:36:05.651Z,2.03
2022-09-17T20:39:10.121Z,2.40
2022-09-17T20:41:20.900Z,2.30
2022-09-17T20:43:52.548Z,2.70
2022-09-17T20:46:26.073Z,2.00
2022-09-17T20:48:57.278Z,2.38
2022-09-17T20:51:27.134Z,2.30
2022-09-17T20:53:54.686Z,2.58
2022-09-17T20:56:23.959Z,2.20
2022-09-17T20:59:01.321Z,2.78
2022-09-17T21:01:36.763Z,2.17
2022-09-17T21:04:06.129Z,2.30
2022-09-17T21:06:38.369Z,2.40
2022-09-17T21:09:10.390Z,2.67
2022-09-17T21:14:04.480Z,2.53
2022-09-17T21:16:31.300Z,2.92
2022-09-17T21:19:00.259Z,2.55
2022-09-17T21:21:27.513Z,2.95
2022-09-17T21:23:54.688Z,3.05
2022-09-17T21:26:24.822Z,3.00
2022-09-17T21:28:53.974Z,3.10
2022-09-17T21:31:23.210Z,2.85
2022-09-17T21:33:54.017Z,2.78
2022-09-17T21:36:22.964Z,2.90
2022-09-17T21:38:58.160Z,2.80
2022-09-17T21:41:25.813Z,2.10
2022-09-17T21:43:53.694Z,2.65
2022-09-17T21:46:28.505Z,2.78
2022-09-17T21:49:02.068Z,2.70
2022-09-17T21:51:36.498Z,2.80
2022-09-17T21:54:09.019Z,2.70
2022-09-17T21:56:36.594Z,2.30
2022-09-17T21:59:09.017Z,2.33
2022-09-17T22:01:41.773Z,2.30
2022-09-17T22:04:10.484Z,2.10
2022-09-17T22:06:38.156Z,2.20
2022-09-17T22:09:07.526Z,1.70
2022-09-17T22:11:36.979Z,2.25
2022-09-17T22:14:11.208Z,1.70
2022-09-17T22:16:43.529Z,1.38
2022-09-17T22:19:12.891Z,1.25
2022-09-17T22:21:42.585Z,1.40
2022-09-17T22:24:10.792Z,1.67
2022-09-17T22:26:41.451Z,1.20
2022-09-17T22:29:19.382Z,1.30
2022-09-17T22:31:46.718Z,1.20
2022-09-17T22:34:20.077Z,1.00
2022-09-17T22:36:48.207Z,1.20
2022-09-17T22:39:15.558Z,1.40
2022-09-17T22:41:45.392Z,0.80
2022-09-17T22:44:15.635Z,1.00
2022-09-17T22:46:43.127Z,0.80
2022-09-17T22:49:11.793Z,0.93
2022-09-17T22:51:40.079Z,1.00
2022-09-17T22:54:07.471Z,1.10
2022-09-17T22:56:36.265Z,0.80
2022-09-17T22:59:04.118Z,1.00
2022-09-17T23:01:33.909Z,1.25
2022-09-17T23:04:01.567Z,1.40
2022-09-17T23:06:31.309Z,1.42
2022-09-17T23:08:58.580Z,0.80
2022-09-17T23:11:28.788Z,0.63
2022-09-17T23:14:02.120Z,0.38
2022-09-17T23:16:33.992Z,0.30
2022-09-17T23:19:03.582Z,0.00
2022-09-17T23:21:30.431Z,0.13
2022-09-17T23:23:57.360Z,0.10
2022-09-17T23:26:26.932Z,0.03
2022-09-17T23:28:54.048Z,0.10
2022-09-17T23:31:23.871Z,0.10
2022-09-17T23:33:51.561Z,0.10
2022-09-17T23:36:22.641Z,0.10
2022-09-17T23:38:50.406Z,0.10
2022-09-17T23:41:29.089Z,0.00
2022-09-17T23:43:58.381Z,0.10
2022-09-17T23:46:27.107Z,0.17
2022-09-17T23:48:54.087Z,0.20
2022-09-17T23:51:22.631Z,0.20
2022-09-17T23:53:49.501Z,0.10
2022-09-17T23:56:19.733Z,0.10
2022-09-17T23:58:46.547Z,0.10
